Bakersfield, CA

8:28 PM PDT on September 15, 2014 (GMT -0700)
Meadows | Change Station
CLOSE
Current Station
Airport
Location: Bakersfield,
Elevation: 492 ft
Nearby Weather Stations

Elev 492 ft 35.43 °N, 119.05 °W | Updated 34 minutes ago

Clear
Clear
95 °F
Feels Like 95 °F
N
0
Wind Variable Wind from North

Today
High -- | Low -- °F
--% Chance of Precip.
Yesterday
High -- | Low -- °F
Precip. -- in
6:39 AM 7:03 PM
Waning Gibbous, 49% visible
Pressure 29.76 in
Visibility 10.0 miles
Clouds Clear
Dew Point 49 °F
Humidity 21%
Rainfall 0.00 in
Snow Depth 0 in , 0 in , 1 in
UV 0 out of 12
Pollen 7.70 out of 12
Ozone Moderate
PM2.5 Good
Flu Activity Not available.
METAR KBFL 160254Z 00000KT 10SM CLR 35/09 A2978 RMK AO2 SLP078 T03500094 53006

More Conditions Fewer Conditions

Pressure 29.76 in
Visibility 10.0 miles
Clouds Clear
Dew Point 49 °F
Humidity 21%
Rainfall 0.00 in
Snow Depth 0 in , 0 in , 1 in
UV 0 out of 12
Pollen 7.70 out of 12
Ozone Moderate
PM2.5 Good
Flu Activity Not available.
METAR KBFL 160254Z 00000KT 10SM CLR 35/09 A2978 RMK AO2 SLP078 T03500094 53006

More Conditions Fewer Conditions

10-Day Weather Forecast

Almanac

Astronomy

Sep. 15, 2014 Rise Set
Actual Time 6:39 AM PDT 7:03 PM PDT
Civil Twilight 6:13 AM PDT 7:28 PM PDT
Nautical Twilight 5:43 AM PDT 7:58 PM PDT
Astronomical Twilight 5:13 AM PDT 8:28 PM PDT
Moon No Moon Rise 1:30 PM PDT (9/15)
Length of Visible Light 13h 15m
Length of Day
12h 24m
Tomorrow will be 2m 13s shorter.
Waning Gibbous, 49% of the Moon is Illuminated
Today
Waning Gibbous
Sep 24
New
Oct 1
First Quarter
Oct 8
Full
Oct 15
Last Quarter

Today's Extremes

State Highs State Lows

Community

WunderPhotos

Upload Photos

1,753,694 photos uploaded!

Nearby

Air Quality

  Air Quality AQ Index Pollutant
Yesterday Moderate
OZONE
Yesterday Good
PM2.5
Current Moderate
OZONE
Current Good
PM2.5
Monday Moderate
OZONE
Tuesday Unhealthy for Sensitive Groups
OZONE
Wednesday Unhealthy for Sensitive Groups
OZONE
Thursday Unhealthy for Sensitive Groups
OZONE
Friday Unhealthy for Sensitive Groups
OZONE
Saturday Unhealthy for Sensitive Groups
OZONE

Snow Depth

Station Depth Elevation
Adin Mountain 0 in 6200 ft
Monitor Pass 0 in 8350 ft
Leavitt Meadows 1 in 7200 ft
Echo Peak 0 in 7800 ft
Cedar Pass 0 in 7100 ft

Earthquake Activity

City Distance Mag. Time & Date
Inyokern, California 67 miles 3.2 5:56 PM PDT
2014-09-14
Minimum magnitude displayed is 2.5.

Coastal Water Temperatures

Place Temperature
No Stations Reporting

Nearby Weather Stations